createdAt,value
2023-09-07T00:02:38.674Z,101297.17
2023-09-07T00:05:43.410Z,101297.76
2023-09-07T00:08:47.380Z,101300.09
2023-09-07T00:11:51.378Z,101302.56
2023-09-07T00:14:56.012Z,101303.88
2023-09-07T00:18:00.010Z,101302.52
2023-09-07T00:21:04.589Z,101299.77
2023-09-07T00:24:08.672Z,101296.79
2023-09-07T00:27:13.046Z,101295.39
2023-09-07T00:30:16.981Z,101294.17
2023-09-07T00:33:21.540Z,101293.12
2023-09-07T00:36:25.374Z,101290.00
2023-09-07T00:39:29.365Z,101290.42
2023-09-07T00:42:34.222Z,101292.75
2023-09-07T00:45:39.764Z,101294.33
2023-09-07T00:48:44.120Z,101292.23
2023-09-07T00:51:48.614Z,101291.86
2023-09-07T00:54:52.877Z,101295.39
2023-09-07T00:57:57.144Z,101300.11
2023-09-07T01:01:01.826Z,101298.02
2023-09-07T01:04:06.287Z,101294.20
2023-09-07T01:07:21.582Z,101291.40
2023-09-07T01:10:25.934Z,101291.06
2023-09-07T01:13:29.889Z,101287.95
2023-09-07T01:16:40.096Z,101289.60
2023-09-07T01:19:45.215Z,101289.30
2023-09-07T01:22:49.345Z,101286.21
2023-09-07T01:25:54.857Z,101288.34
2023-09-07T01:28:59.447Z,101288.05
2023-09-07T01:32:03.678Z,101289.62
2023-09-07T01:35:11.315Z,101292.33
2023-09-07T01:38:15.425Z,101287.08
2023-09-07T01:41:19.381Z,101290.19
2023-09-07T01:44:23.566Z,101289.09
2023-09-07T01:47:27.687Z,101288.47
2023-09-07T01:50:31.814Z,101293.56
2023-09-07T01:53:36.053Z,101291.56
2023-09-07T01:56:42.204Z,101293.05
2023-09-07T01:59:46.453Z,101293.29
2023-09-07T02:02:50.662Z,101290.79
2023-09-07T02:05:55.331Z,101289.09
2023-09-07T02:08:59.531Z,101285.95
2023-09-07T02:12:05.308Z,101284.71
2023-09-07T02:15:10.401Z,101283.27
2023-09-07T02:18:14.503Z,101285.23
2023-09-07T02:21:18.559Z,101284.94
2023-09-07T02:24:22.609Z,101287.69
2023-09-07T02:27:26.819Z,101289.23
2023-09-07T02:30:31.110Z,101286.86
2023-09-07T02:33:36.946Z,101290.71
2023-09-07T02:36:41.434Z,101294.05
2023-09-07T02:39:45.834Z,101294.96
2023-09-07T02:42:49.682Z,101294.98
2023-09-07T02:45:54.734Z,101303.95
2023-09-07T02:48:59.897Z,101307.84
2023-09-07T02:52:05.107Z,101310.16
2023-09-07T02:55:09.444Z,101313.66
2023-09-07T02:58:13.794Z,101309.19
2023-09-07T03:01:22.005Z,101309.17
2023-09-07T03:04:26.623Z,101311.02
2023-09-07T03:07:33.977Z,101313.96
2023-09-07T03:10:40.902Z,101316.24
2023-09-07T03:13:45.461Z,101318.16
2023-09-07T03:16:51.619Z,101320.84
2023-09-07T03:19:56.153Z,101318.20
2023-09-07T03:23:00.224Z,101317.39
2023-09-07T03:26:04.211Z,101316.09
2023-09-07T03:29:08.549Z,101313.65
2023-09-07T03:32:13.144Z,101316.66
2023-09-07T03:35:17.526Z,101321.34
2023-09-07T03:38:21.432Z,101322.63
2023-09-07T03:41:31.376Z,101323.58
2023-09-07T03:44:35.674Z,101323.05
2023-09-07T03:47:40.201Z,101326.23
2023-09-07T03:50:44.516Z,101329.56
2023-09-07T03:53:48.492Z,101327.13
2023-09-07T03:56:52.634Z,101324.65
2023-09-07T03:59:58.108Z,101323.83
2023-09-07T04:03:02.332Z,101320.63
2023-09-07T04:06:06.567Z,101319.94
2023-09-07T04:09:11.547Z,101325.05
2023-09-07T04:12:15.580Z,101327.52
2023-09-07T04:15:19.744Z,101330.63
2023-09-07T04:18:24.432Z,101328.55
2023-09-07T04:21:28.855Z,101329.98
2023-09-07T04:24:33.583Z,101330.67
2023-09-07T04:27:39.075Z,101329.20
2023-09-07T04:30:43.628Z,101329.27
2023-09-07T04:33:48.312Z,101331.79
2023-09-07T04:36:52.522Z,101334.67
2023-09-07T04:39:57.169Z,101337.95
2023-09-07T04:43:01.322Z,101334.25
2023-09-07T04:46:05.538Z,101337.67
2023-09-07T04:49:09.809Z,101336.48
2023-09-07T04:52:13.761Z,101339.05
2023-09-07T04:55:17.960Z,101341.27
2023-09-07T04:58:22.162Z,101341.20
2023-09-07T05:01:26.333Z,101347.02
2023-09-07T05:04:31.883Z,101351.98
2023-09-07T05:07:36.972Z,101354.13
2023-09-07T05:10:41.147Z,101357.58
2023-09-07T05:13:45.129Z,101357.05
2023-09-07T05:16:49.233Z,101355.43
2023-09-07T05:19:53.307Z,101360.52
2023-09-07T05:22:58.013Z,101364.66
2023-09-07T05:26:02.251Z,101358.27
2023-09-07T05:29:06.196Z,101364.83
2023-09-07T05:32:11.676Z,101363.23
2023-09-07T05:35:17.857Z,101363.60
2023-09-07T05:38:22.021Z,101365.86
2023-09-07T05:41:26.418Z,101365.07
2023-09-07T05:44:31.006Z,101371.94
2023-09-07T05:47:35.108Z,101374.72
2023-09-07T05:50:40.300Z,101378.74
2023-09-07T05:53:44.427Z,101372.02
2023-09-07T05:56:48.651Z,101377.37
2023-09-07T05:59:53.484Z,101382.95
2023-09-07T06:02:58.394Z,101385.63
2023-09-07T06:06:03.856Z,101379.83
2023-09-07T06:09:08.476Z,101382.28
2023-09-07T06:12:12.648Z,101389.12
2023-09-07T06:15:17.633Z,101386.31
2023-09-07T06:18:22.203Z,101386.81
2023-09-07T06:21:26.306Z,101388.71
2023-09-07T06:24:30.458Z,101391.47
2023-09-07T06:27:34.747Z,101392.48
2023-09-07T06:30:39.059Z,101397.09
2023-09-07T06:33:43.458Z,101396.72
2023-09-07T06:36:48.530Z,101396.01
2023-09-07T06:39:55.627Z,101395.31
2023-09-07T06:42:59.886Z,101393.86
2023-09-07T06:46:09.324Z,101393.40
2023-09-07T06:49:14.090Z,101393.18
2023-09-07T06:52:18.321Z,101394.27
2023-09-07T06:55:22.953Z,101395.45
2023-09-07T06:58:28.095Z,101392.83
2023-09-07T07:01:33.661Z,101395.19
2023-09-07T07:04:38.195Z,101399.35
2023-09-07T07:07:42.691Z,101397.02
2023-09-07T07:10:46.930Z,101399.83
2023-09-07T07:13:51.729Z,101406.31
2023-09-07T07:16:55.978Z,101402.85
2023-09-07T07:20:00.631Z,101406.87
2023-09-07T07:23:05.659Z,101410.52
2023-09-07T07:26:10.215Z,101412.45
2023-09-07T07:29:14.699Z,101417.96
2023-09-07T07:32:18.838Z,101415.46
2023-09-07T07:35:24.972Z,101419.83
2023-09-07T07:38:29.594Z,101420.58
2023-09-07T07:41:34.319Z,101417.86
2023-09-07T07:44:38.548Z,101421.21
2023-09-07T07:47:42.987Z,101421.00
2023-09-07T07:50:47.239Z,101419.65
2023-09-07T07:53:52.688Z,101421.83
2023-09-07T07:56:57.413Z,101425.48
2023-09-07T08:00:02.050Z,101430.38
2023-09-07T08:03:08.486Z,101433.70
2023-09-07T08:06:14.716Z,101429.04
2023-09-07T08:09:19.047Z,101432.49
2023-09-07T08:12:23.413Z,101429.69
2023-09-07T08:15:27.591Z,101426.53
2023-09-07T08:18:36.054Z,101426.58
2023-09-07T08:21:43.278Z,101421.05
2023-09-07T08:24:48.414Z,101428.63
2023-09-07T08:27:55.068Z,101424.71
2023-09-07T08:31:00.523Z,101425.21
2023-09-07T08:34:06.714Z,101423.30
2023-09-07T08:37:10.900Z,101420.11
2023-09-07T08:40:18.320Z,101424.83
2023-09-07T08:43:23.007Z,101423.46
2023-09-07T08:46:28.014Z,101423.77
2023-09-07T08:49:33.763Z,101420.14
2023-09-07T08:52:39.393Z,101419.38
2023-09-07T08:55:43.521Z,101418.00
2023-09-07T08:58:50.622Z,101418.38
2023-09-07T09:01:59.805Z,101416.68
2023-09-07T09:05:06.026Z,101417.52
2023-09-07T09:08:11.921Z,101416.95
2023-09-07T09:11:17.563Z,101416.39
2023-09-07T09:14:25.050Z,101417.16
2023-09-07T09:17:29.147Z,101413.02
2023-09-07T09:20:33.656Z,101415.71
2023-09-07T09:23:38.882Z,101414.16
2023-09-07T09:26:43.223Z,101406.38
2023-09-07T09:29:47.165Z,101410.37
2023-09-07T09:32:52.340Z,101413.04
2023-09-07T09:35:57.720Z,101412.66
2023-09-07T09:39:01.720Z,101405.47
2023-09-07T09:42:06.040Z,101407.83
2023-09-07T09:45:12.032Z,101408.92
2023-09-07T09:48:17.663Z,101402.08
2023-09-07T09:51:21.958Z,101402.98
2023-09-07T09:54:27.570Z,101404.82
2023-09-07T09:57:31.746Z,101405.59
2023-09-07T10:00:39.410Z,101405.45
2023-09-07T10:03:48.950Z,101406.09
2023-09-07T10:07:00.546Z,101408.58
2023-09-07T10:10:05.100Z,101405.45
2023-09-07T10:13:09.442Z,101403.98
2023-09-07T10:16:13.380Z,101400.79
2023-09-07T10:19:18.711Z,101403.45
2023-09-07T10:22:26.846Z,101405.13
2023-09-07T10:25:33.022Z,101404.63
2023-09-07T10:28:37.061Z,101401.73
2023-09-07T10:31:54.067Z,101399.00
2023-09-07T10:35:00.793Z,101403.98
2023-09-07T10:38:06.286Z,101401.65
2023-09-07T10:41:10.323Z,101399.48
2023-09-07T10:44:15.187Z,101402.63
2023-09-07T10:47:19.390Z,101400.20
2023-09-07T10:50:23.738Z,101402.63
2023-09-07T10:53:33.518Z,101400.22
2023-09-07T10:56:37.709Z,101396.27
2023-09-07T10:59:48.232Z,101391.84
2023-09-07T11:02:52.559Z,101395.95
2023-09-07T11:06:04.289Z,101395.70
2023-09-07T11:09:12.346Z,101395.61
2023-09-07T11:12:17.371Z,101395.20
2023-09-07T11:15:22.130Z,101393.38
2023-09-07T11:18:27.309Z,101389.84
2023-09-07T11:21:33.975Z,101387.25
2023-09-07T11:24:38.463Z,101381.66
2023-09-07T11:27:42.581Z,101379.60
2023-09-07T11:30:54.696Z,101382.15
2023-09-07T11:33:58.824Z,101379.00
2023-09-07T11:37:05.695Z,101379.06
2023-09-07T11:40:13.268Z,101378.17
2023-09-07T11:43:22.109Z,101373.08
2023-09-07T11:46:26.083Z,101376.40
2023-09-07T11:49:31.023Z,101378.51
2023-09-07T11:52:35.852Z,101371.88
2023-09-07T11:55:42.301Z,101368.86
2023-09-07T11:58:46.519Z,101371.94
2023-09-07T12:01:50.651Z,101369.67
2023-09-07T12:04:55.664Z,101375.45
2023-09-07T12:08:00.209Z,101374.86
2023-09-07T12:11:05.380Z,101375.98
2023-09-07T12:14:09.327Z,101372.40
2023-09-07T12:17:13.564Z,101366.48
2023-09-07T12:20:17.958Z,101365.70
2023-09-07T12:23:22.027Z,101363.25
2023-09-07T12:26:26.022Z,101364.19
2023-09-07T12:29:30.110Z,101360.36
2023-09-07T12:32:34.912Z,101359.28
2023-09-07T12:35:39.605Z,101351.06
2023-09-07T12:38:43.621Z,101353.84
2023-09-07T12:41:47.715Z,101352.45
2023-09-07T12:44:51.679Z,101349.25
2023-09-07T12:47:55.692Z,101344.02
2023-09-07T12:50:59.656Z,101333.98
2023-09-07T12:54:04.410Z,101339.83
2023-09-07T12:57:08.650Z,101345.41
2023-09-07T13:00:13.192Z,101341.10
2023-09-07T13:03:17.548Z,101337.38
2023-09-07T13:06:21.823Z,101333.64
2023-09-07T13:09:25.798Z,101335.20
2023-09-07T13:12:29.726Z,101329.59
2023-09-07T13:15:34.408Z,101322.03
2023-09-07T13:18:39.582Z,101318.02
2023-09-07T13:21:43.599Z,101315.64
2023-09-07T13:24:47.581Z,101313.77
2023-09-07T13:27:51.817Z,101312.35
2023-09-07T13:30:55.935Z,101308.73
2023-09-07T13:34:00.286Z,101309.52
2023-09-07T13:37:04.495Z,101309.70
2023-09-07T13:40:09.245Z,101313.31
2023-09-07T13:43:13.458Z,101309.92
2023-09-07T13:46:17.744Z,101307.58
2023-09-07T13:49:22.476Z,101303.64
2023-09-07T13:52:27.260Z,101300.25
2023-09-07T13:55:32.001Z,101300.47
2023-09-07T13:58:36.099Z,101294.86
2023-09-07T14:01:40.548Z,101295.30
2023-09-07T14:04:44.573Z,101293.29
2023-09-07T14:07:49.151Z,101282.77
2023-09-07T14:10:53.068Z,101281.13
2023-09-07T14:13:57.371Z,101277.34
2023-09-07T14:17:01.782Z,101277.84
2023-09-07T14:20:06.386Z,101275.92
2023-09-07T14:23:10.352Z,101271.27
2023-09-07T14:26:14.760Z,101270.28
2023-09-07T14:29:18.923Z,101269.21
2023-09-07T14:32:22.882Z,101270.60
2023-09-07T14:35:26.846Z,101269.44
2023-09-07T14:38:30.997Z,101264.05
2023-09-07T14:41:38.276Z,101267.09
2023-09-07T14:44:42.215Z,101267.17
2023-09-07T14:47:46.750Z,101264.07
2023-09-07T14:50:50.708Z,101264.59
2023-09-07T14:53:54.746Z,101262.02
2023-09-07T14:56:58.764Z,101259.14
2023-09-07T15:00:04.037Z,101261.55
2023-09-07T15:03:08.127Z,101255.05
2023-09-07T15:06:13.537Z,101256.74
2023-09-07T15:09:17.602Z,101250.92
2023-09-07T15:12:21.595Z,101250.86
2023-09-07T15:15:26.235Z,101247.42
2023-09-07T15:18:30.641Z,101249.98
2023-09-07T15:21:34.876Z,101251.33
2023-09-07T15:24:38.905Z,101249.08
2023-09-07T15:27:44.759Z,101251.13
2023-09-07T15:30:48.759Z,101243.70
2023-09-07T15:33:53.082Z,101246.36
2023-09-07T15:36:57.202Z,101243.66
2023-09-07T15:40:01.546Z,101242.00
2023-09-07T15:43:05.941Z,101242.38
2023-09-07T15:46:10.011Z,101239.80
2023-09-07T15:49:13.987Z,101238.77
2023-09-07T15:52:20.292Z,101238.30
2023-09-07T15:55:24.612Z,101238.61
2023-09-07T15:58:28.658Z,101239.34
2023-09-07T16:01:32.898Z,101236.63
2023-09-07T16:04:36.972Z,101237.60
2023-09-07T16:07:40.963Z,101235.15
2023-09-07T16:10:44.934Z,101244.98
2023-09-07T16:13:48.942Z,101243.69
2023-09-07T16:16:53.213Z,101241.94
2023-09-07T16:19:57.536Z,101246.59
2023-09-07T16:23:01.423Z,101247.80
2023-09-07T16:26:05.620Z,101253.39
2023-09-07T16:29:10.817Z,101247.97
2023-09-07T16:32:15.630Z,101251.73
2023-09-07T16:35:19.778Z,101248.91
2023-09-07T16:38:24.274Z,101252.70
2023-09-07T16:41:28.217Z,101252.20
2023-09-07T16:44:32.748Z,101254.84
2023-09-07T16:47:36.757Z,101258.89
2023-09-07T16:50:46.245Z,101258.12
2023-09-07T16:53:50.324Z,101257.53
2023-09-07T16:56:54.590Z,101258.25
2023-09-07T16:59:58.619Z,101259.27
2023-09-07T17:03:05.407Z,101256.70
2023-09-07T17:06:09.609Z,101255.85
2023-09-07T17:09:13.766Z,101254.25
2023-09-07T17:12:18.068Z,101251.13
2023-09-07T17:15:22.460Z,101251.80
2023-09-07T17:18:26.627Z,101250.52
2023-09-07T17:21:30.662Z,101256.89
2023-09-07T17:24:34.630Z,101257.61
2023-09-07T17:27:38.872Z,101261.98
2023-09-07T17:30:42.839Z,101261.59
2023-09-07T17:33:47.451Z,101264.16
2023-09-07T17:36:52.208Z,101267.27
2023-09-07T17:39:58.493Z,101267.43
2023-09-07T17:43:04.890Z,101272.85
2023-09-07T17:46:09.326Z,101278.30
2023-09-07T17:49:13.858Z,101285.80
2023-09-07T17:52:18.181Z,101284.96
2023-09-07T17:55:22.089Z,101284.20
2023-09-07T17:58:26.043Z,101280.65
2023-09-07T18:01:30.384Z,101283.05
2023-09-07T18:04:34.535Z,101280.89
2023-09-07T18:07:38.453Z,101284.41
2023-09-07T18:10:42.425Z,101290.20
2023-09-07T18:13:49.492Z,101288.15
2023-09-07T18:16:56.333Z,101285.55
2023-09-07T18:20:00.490Z,101278.98
2023-09-07T18:23:04.670Z,101282.05
2023-09-07T18:26:15.832Z,101286.60
2023-09-07T18:29:20.733Z,101285.11
2023-09-07T18:32:27.714Z,101288.29
2023-09-07T18:35:32.424Z,101290.52
2023-09-07T18:38:36.622Z,101294.96
2023-09-07T18:41:40.800Z,101292.11
2023-09-07T18:44:44.759Z,101295.20
2023-09-07T18:47:48.839Z,101300.55
2023-09-07T18:51:01.659Z,101299.98
2023-09-07T18:54:05.627Z,101301.51
2023-09-07T18:57:09.879Z,101299.44
2023-09-07T19:00:16.267Z,101300.40
2023-09-07T19:03:20.540Z,101298.41
2023-09-07T19:06:24.929Z,101296.66
2023-09-07T19:09:28.964Z,101301.48
2023-09-07T19:12:33.116Z,101307.94
2023-09-07T19:15:39.850Z,101306.40
2023-09-07T19:18:44.065Z,101305.90
2023-09-07T19:21:48.059Z,101309.84
2023-09-07T19:24:53.828Z,101311.16
2023-09-07T19:27:57.770Z,101315.27
2023-09-07T19:31:01.690Z,101315.82
2023-09-07T19:34:08.863Z,101311.63
2023-09-07T19:37:13.508Z,101311.61
2023-09-07T19:40:18.816Z,101314.27
2023-09-07T19:43:22.949Z,101316.59
2023-09-07T19:46:27.850Z,101310.02
2023-09-07T19:49:31.869Z,101307.06
2023-09-07T19:52:35.852Z,101305.45
2023-09-07T19:55:39.814Z,101308.20
2023-09-07T19:58:43.790Z,101304.66
2023-09-07T20:01:58.842Z,101308.18
2023-09-07T20:05:02.850Z,101306.41
2023-09-07T20:08:07.463Z,101306.32
2023-09-07T20:11:14.288Z,101307.05
2023-09-07T20:14:18.810Z,101304.48
2023-09-07T20:17:22.866Z,101304.06
2023-09-07T20:20:26.858Z,101302.57
2023-09-07T20:23:33.660Z,101305.37
2023-09-07T20:26:37.920Z,101305.20
2023-09-07T20:29:41.862Z,101305.28
2023-09-07T20:32:45.843Z,101300.57
2023-09-07T20:35:49.857Z,101301.98
2023-09-07T20:38:54.204Z,101300.17
2023-09-07T20:41:58.228Z,101299.50
2023-09-07T20:45:02.342Z,101300.02
2023-09-07T20:48:06.547Z,101299.54
2023-09-07T20:51:10.986Z,101297.87
2023-09-07T20:54:15.554Z,101300.89
2023-09-07T20:57:19.636Z,101301.02
2023-09-07T21:00:23.794Z,101299.72
2023-09-07T21:03:28.003Z,101299.02
2023-09-07T21:06:32.267Z,101304.88
2023-09-07T21:09:36.289Z,101305.59
2023-09-07T21:12:43.601Z,101303.14
2023-09-07T21:15:47.778Z,101300.55
2023-09-07T21:18:53.907Z,101301.81
2023-09-07T21:21:57.944Z,101304.04
2023-09-07T21:25:01.907Z,101308.73
2023-09-07T21:28:06.226Z,101305.30
2023-09-07T21:31:11.509Z,101307.82
2023-09-07T21:34:15.729Z,101306.26
2023-09-07T21:37:19.814Z,101307.26
2023-09-07T21:40:24.411Z,101305.12
2023-09-07T21:43:29.004Z,101307.46
2023-09-07T21:46:33.129Z,101304.36
2023-09-07T21:49:37.314Z,101302.90
2023-09-07T21:52:41.369Z,101305.42
2023-09-07T21:55:45.389Z,101308.10
2023-09-07T21:58:49.476Z,101307.52
2023-09-07T22:01:54.290Z,101303.89
2023-09-07T22:04:58.381Z,101309.21
2023-09-07T22:08:02.397Z,101307.07
2023-09-07T22:11:06.663Z,101312.58
2023-09-07T22:14:10.554Z,101312.39
2023-09-07T22:17:15.462Z,101315.21
2023-09-07T22:20:19.673Z,101316.79
2023-09-07T22:23:40.424Z,101318.60
2023-09-07T22:26:47.768Z,101313.13
2023-09-07T22:29:51.855Z,101309.98
2023-09-07T22:32:56.127Z,101307.88
2023-09-07T22:36:00.331Z,101309.92
2023-09-07T22:39:04.793Z,101310.71
2023-09-07T22:42:08.686Z,101312.92
2023-09-07T22:45:13.863Z,101313.03
2023-09-07T22:48:18.368Z,101313.13
2023-09-07T22:51:22.289Z,101309.23
2023-09-07T22:54:26.435Z,101308.04
2023-09-07T22:57:30.503Z,101309.30
2023-09-07T23:00:34.515Z,101309.88
2023-09-07T23:03:38.565Z,101313.92
2023-09-07T23:06:42.846Z,101310.33
2023-09-07T23:09:47.284Z,101309.74
2023-09-07T23:12:51.351Z,101308.00
2023-09-07T23:15:55.334Z,101312.08
2023-09-07T23:18:59.940Z,101310.76
2023-09-07T23:22:04.300Z,101309.74
2023-09-07T23:25:09.816Z,101309.81
2023-09-07T23:28:13.800Z,101310.48
2023-09-07T23:31:19.028Z,101311.94
2023-09-07T23:34:23.168Z,101316.59
2023-09-07T23:37:27.091Z,101315.98
2023-09-07T23:40:31.039Z,101318.63
2023-09-07T23:43:35.096Z,101322.10
2023-09-07T23:46:39.066Z,101320.40
2023-09-07T23:49:43.069Z,101321.23
2023-09-07T23:52:46.986Z,101322.79
2023-09-07T23:55:50.920Z,101317.96
2023-09-07T23:58:54.898Z,101318.23
